Time;durP1;ratioP1;P1;durP2;ratioP2;P2;SDS_P1;SDS_P2;PMS_P1;PMS_P2;Temp;Humidity;BMP_temperature;BMP_pressure;BME280_temperature;BME280_humidity;BME280_pressure;Samples;Min_cycle;Max_cycle;Signal;HPM_P1;HPM_P2
2021/12/24 00:01:44;;;;;;;118.18;39.88;;;;;;;;;;5002615;28;97061;-76
2021/12/24 00:04:12;;;;;;;136.25;38.55;;;;;;;;;;4968489;28;97445;-76
2021/12/24 00:06:38;;;;;;;123.95;39.10;;;;;;;;;;4990704;28;95712;-76
2021/12/24 00:09:05;;;;;;;125.07;40.03;;;;;;;;;;5008636;28;97330;-75
2021/12/24 00:11:33;;;;;;;121.32;37.95;;;;;;;;;;4987680;28;97299;-76
2021/12/24 00:14:01;;;;;;;120.57;39.15;;;;;;;;;;4971058;28;95446;-76
2021/12/24 00:16:38;;;;;;;101.03;35.72;;;;;;;;;;4990552;28;97702;-75
2021/12/24 00:35:33;;;;;;;72.65;29.08;;;;;;;;;;4993859;28;95174;-76
2021/12/24 00:38:03;;;;;;;71.15;29.98;;;;;;;;;;5013660;28;97616;-76
2021/12/24 00:40:31;;;;;;;68.32;28.50;;;;;;;;;;5010200;28;95396;-76
2021/12/24 00:42:58;;;;;;;70.20;28.23;;;;;;;;;;5011426;28;96737;-76
2021/12/24 00:45:25;;;;;;;63.63;27.15;;;;;;;;;;5008847;28;97319;-76
2021/12/24 00:47:53;;;;;;;75.93;29.83;;;;;;;;;;5007459;28;95813;-76
2021/12/24 00:50:22;;;;;;;70.63;30.23;;;;;;;;;;5010365;28;96868;-76
2021/12/24 00:52:54;;;;;;;68.32;29.13;;;;;;;;;;5011414;28;97434;-76
2021/12/24 00:55:22;;;;;;;83.03;31.95;;;;;;;;;;5010264;28;95824;-76
2021/12/24 00:57:53;;;;;;;78.13;31.42;;;;;;;;;;4979391;28;97066;-76
2021/12/24 01:00:22;;;;;;;79.70;32.17;;;;;;;;;;5011097;28;95363;-75
2021/12/24 01:02:49;;;;;;;83.13;33.10;;;;;;;;;;5011108;28;96649;-76
2021/12/24 01:05:16;;;;;;;79.70;31.80;;;;;;;;;;5011075;28;97637;-75
2021/12/24 01:07:45;;;;;;;79.28;29.55;;;;;;;;;;4993185;28;95999;-76
2021/12/24 01:10:12;;;;;;;83.93;31.55;;;;;;;;;;4970863;28;96842;-76
2021/12/24 01:12:38;;;;;;;70.10;29.75;;;;;;;;;;4970997;28;97098;-75
2021/12/24 01:15:05;;;;;;;73.10;30.60;;;;;;;;;;4979668;28;96456;-76
2021/12/24 01:17:44;;;;;;;72.85;30.70;;;;;;;;;;5001227;28;96912;-75
2021/12/24 01:44:11;;;;;;;72.88;29.00;;;;;;;;;;5013928;28;95259;-77
2021/12/24 01:46:39;;;;;;;81.85;29.45;;;;;;;;;;4985610;28;97079;-76
2021/12/24 01:49:06;;;;;;;76.03;28.73;;;;;;;;;;5002516;28;96486;-77
2021/12/24 01:51:32;;;;;;;74.50;28.17;;;;;;;;;;4990976;28;96629;-77
2021/12/24 01:53:59;;;;;;;94.68;30.63;;;;;;;;;;4988724;28;97261;-77
2021/12/24 01:56:25;;;;;;;85.70;29.10;;;;;;;;;;4991188;28;96559;-77
2021/12/24 01:58:51;;;;;;;83.95;30.15;;;;;;;;;;4995920;28;96858;-76
2021/12/24 02:01:18;;;;;;;80.72;30.73;;;;;;;;;;4990321;28;96853;-77
2021/12/24 02:03:44;;;;;;;104.10;33.03;;;;;;;;;;4990637;28;95404;-77
2021/12/24 02:06:11;;;;;;;93.53;33.00;;;;;;;;;;4992021;28;96907;-76
2021/12/24 02:08:37;;;;;;;102.35;36.45;;;;;;;;;;5008414;28;95589;-77
2021/12/24 02:11:03;;;;;;;99.28;36.70;;;;;;;;;;5008255;28;96839;-76
2021/12/24 02:13:30;;;;;;;122.28;39.50;;;;;;;;;;4989417;28;98488;-76
2021/12/24 02:29:33;;;;;;;110.32;38.10;;;;;;;;;;4993164;28;97367;-76
2021/12/24 02:31:59;;;;;;;127.80;38.72;;;;;;;;;;4989725;28;96784;-77
2021/12/24 02:34:25;;;;;;;104.35;38.25;;;;;;;;;;4996173;28;97593;-76
2021/12/24 02:36:52;;;;;;;97.32;40.30;;;;;;;;;;5008484;28;95448;-75
2021/12/24 02:39:18;;;;;;;97.70;37.97;;;;;;;;;;5000754;28;96799;-75
2021/12/24 02:41:45;;;;;;;84.57;34.83;;;;;;;;;;4997393;28;97326;-75
2021/12/24 02:44:11;;;;;;;77.30;31.50;;;;;;;;;;4989727;28;96089;-75
2021/12/24 02:47:05;;;;;;;77.10;31.77;;;;;;;;;;4989317;28;96764;-75
2021/12/24 02:54:54;;;;;;;64.22;27.05;;;;;;;;;;5009282;28;97337;-76
2021/12/24 02:57:26;;;;;;;68.45;26.63;;;;;;;;;;4988367;28;96919;-75
2021/12/24 02:59:59;;;;;;;72.63;28.53;;;;;;;;;;4969989;28;97240;-75
2021/12/24 03:02:26;;;;;;;70.18;26.95;;;;;;;;;;4968770;28;97620;-75
2021/12/24 03:04:54;;;;;;;66.03;26.33;;;;;;;;;;4972663;28;95207;-75
2021/12/24 03:07:20;;;;;;;58.90;27.42;;;;;;;;;;4989706;28;96547;-75
2021/12/24 03:09:46;;;;;;;56.75;25.30;;;;;;;;;;4989950;28;97403;-77
2021/12/24 03:12:13;;;;;;;55.83;24.60;;;;;;;;;;4992197;28;95818;-75
2021/12/24 03:14:39;;;;;;;60.78;23.23;;;;;;;;;;5000736;28;97629;-75
2021/12/24 03:17:11;;;;;;;58.90;21.88;;;;;;;;;;4988751;28;95276;-75
2021/12/24 03:19:37;;;;;;;53.53;22.23;;;;;;;;;;4989806;28;96848;-75
2021/12/24 03:24:34;;;;;;;52.20;19.75;;;;;;;;;;5007302;28;95624;-74
2021/12/24 03:27:00;;;;;;;53.78;21.95;;;;;;;;;;4989639;28;97164;-75
2021/12/24 03:29:26;;;;;;;50.35;19.52;;;;;;;;;;4986852;28;97330;-74
2021/12/24 03:31:53;;;;;;;57.55;20.50;;;;;;;;;;4969222;28;95350;-74
2021/12/24 03:34:20;;;;;;;48.35;19.83;;;;;;;;;;4972193;28;97312;-74
2021/12/24 03:36:47;;;;;;;46.25;19.60;;;;;;;;;;4969185;28;95369;-75
2021/12/24 03:39:14;;;;;;;44.10;19.85;;;;;;;;;;4968543;28;97502;-74
2021/12/24 03:41:40;;;;;;;50.60;19.10;;;;;;;;;;5007572;28;97715;-74
2021/12/24 03:44:09;;;;;;;46.92;19.30;;;;;;;;;;5008769;28;95389;-74
2021/12/24 03:46:50;;;;;;;36.40;18.23;;;;;;;;;;4988244;28;97601;-75
2021/12/24 03:49:31;;;;;;;53.92;20.52;;;;;;;;;;4971656;28;96521;-74
2021/12/24 03:52:14;;;;;;;49.85;18.20;;;;;;;;;;4990175;28;95359;-75
2021/12/24 03:54:56;;;;;;;;;;;;;;;;;;5009415;28;98175;-75
2021/12/24 03:57:27;;;;;;;36.38;17.80;;;;;;;;;;5011201;28;127365;-75
2021/12/24 03:59:55;;;;;;;49.15;18.42;;;;;;;;;;5000589;28;97140;-76
2021/12/24 04:02:22;;;;;;;38.78;17.88;;;;;;;;;;4986875;28;97180;-77
2021/12/24 04:04:49;;;;;;;49.60;18.45;;;;;;;;;;4995983;28;95377;-76
2021/12/24 04:07:15;;;;;;;49.50;17.98;;;;;;;;;;5008011;28;97584;-77
2021/12/24 04:09:49;;;;;;;44.42;18.63;;;;;;;;;;5004453;28;97520;-76
2021/12/24 04:12:16;;;;;;;48.60;18.65;;;;;;;;;;4987768;28;95694;-76
2021/12/24 04:14:42;;;;;;;44.00;16.38;;;;;;;;;;4988354;28;97141;-74
2021/12/24 04:17:08;;;;;;;38.70;17.13;;;;;;;;;;4997096;28;97725;-74
2021/12/24 04:25:05;;;;;;;51.63;16.88;;;;;;;;;;4975961;28;95398;-75
2021/12/24 04:27:31;;;;;;;38.72;16.23;;;;;;;;;;4987950;28;96863;-75
2021/12/24 04:30:21;;;;;;;38.58;17.13;;;;;;;;;;4989762;28;97413;-74
2021/12/24 04:32:57;;;;;;;41.22;16.17;;;;;;;;;;4988361;28;95387;-74
2021/12/24 04:51:02;;;;;;;34.45;15.75;;;;;;;;;;4973226;28;95761;-74
2021/12/24 04:51:47;;;;;;;42.10;16.30;;;;;;;;;;4988964;28;97555;-74
2021/12/24 05:05:36;;;;;;;31.40;13.40;;;;;;;;;;4978768;28;96847;-74
2021/12/24 05:10:37;;;;;;;29.63;12.52;;;;;;;;;;4987667;28;96849;-76
2021/12/24 05:13:08;;;;;;;41.38;12.52;;;;;;;;;;4987143;28;97428;-73
2021/12/24 05:15:39;;;;;;;31.08;13.07;;;;;;;;;;4996614;28;95332;-77
2021/12/24 05:18:15;;;;;;;28.97;11.20;;;;;;;;;;5001350;28;97093;-76
2021/12/24 05:23:26;;;;;;;34.05;11.25;;;;;;;;;;4990488;28;95388;-74
2021/12/24 05:25:53;;;;;;;28.83;10.10;;;;;;;;;;4991152;28;96699;-75
2021/12/24 05:28:20;;;;;;;37.40;10.80;;;;;;;;;;5000823;28;97384;-74
2021/12/24 05:30:47;;;;;;;36.45;11.18;;;;;;;;;;4990725;28;96898;-74
2021/12/24 05:33:16;;;;;;;35.55;9.90;;;;;;;;;;4984995;28;97535;-75
2021/12/24 05:35:42;;;;;;;37.55;10.48;;;;;;;;;;4984942;28;95346;-76
2021/12/24 05:38:09;;;;;;;29.10;9.55;;;;;;;;;;4986940;28;96849;-74
2021/12/24 05:40:36;;;;;;;32.72;10.30;;;;;;;;;;4982275;28;96254;-74
2021/12/24 05:43:02;;;;;;;32.67;9.82;;;;;;;;;;5000082;28;95456;-75
2021/12/24 05:45:29;;;;;;;28.83;8.77;;;;;;;;;;5001641;28;95618;-76
2021/12/24 05:47:56;;;;;;;24.20;8.55;;;;;;;;;;4990980;28;98071;-75
2021/12/24 05:50:22;;;;;;;35.35;8.85;;;;;;;;;;4992007;28;95352;-75
2021/12/24 05:52:49;;;;;;;40.70;8.70;;;;;;;;;;4976449;28;97281;-75
2021/12/24 05:55:15;;;;;;;29.83;8.57;;;;;;;;;;4982982;28;96048;-74
2021/12/24 05:57:42;;;;;;;27.27;8.20;;;;;;;;;;4991213;28;96792;-74
2021/12/24 06:00:09;;;;;;;26.33;7.93;;;;;;;;;;4971423;28;96258;-74
2021/12/24 06:02:35;;;;;;;27.73;7.80;;;;;;;;;;4981513;28;95673;-75
2021/12/24 06:05:02;;;;;;;29.55;7.82;;;;;;;;;;5008166;28;96763;-75
2021/12/24 06:07:28;;;;;;;27.60;7.95;;;;;;;;;;5010312;28;97344;-75
2021/12/24 06:09:55;;;;;;;38.13;8.07;;;;;;;;;;5010579;28;95842;-74
2021/12/24 06:12:21;;;;;;;26.27;7.85;;;;;;;;;;5002803;28;96897;-75
2021/12/24 06:14:53;;;;;;;29.52;8.00;;;;;;;;;;4998956;28;95365;-74
2021/12/24 06:17:22;;;;;;;22.02;7.25;;;;;;;;;;4991502;28;96912;-74
2021/12/24 06:19:49;;;;;;;32.03;7.50;;;;;;;;;;4990035;28;97207;-74
2021/12/24 06:22:15;;;;;;;25.17;7.70;;;;;;;;;;4989329;28;95570;-75
2021/12/24 06:24:42;;;;;;;24.67;6.97;;;;;;;;;;5005697;28;96934;-74
2021/12/24 06:27:08;;;;;;;30.10;8.18;;;;;;;;;;4990009;28;97359;-75
2021/12/24 06:29:34;;;;;;;24.15;6.80;;;;;;;;;;4988579;28;95401;-75
2021/12/24 06:32:01;;;;;;;29.70;7.38;;;;;;;;;;4990180;28;96811;-75
2021/12/24 06:34:30;;;;;;;28.58;7.35;;;;;;;;;;5004347;28;97277;-75
2021/12/24 06:36:58;;;;;;;34.45;7.68;;;;;;;;;;4999646;28;96908;-76
2021/12/24 06:39:24;;;;;;;31.35;8.20;;;;;;;;;;4989962;28;97835;-78
2021/12/24 06:41:50;;;;;;;29.60;7.88;;;;;;;;;;4989112;28;96557;-79
2021/12/24 06:44:17;;;;;;;28.85;8.85;;;;;;;;;;4991011;28;97182;-76
2021/12/24 06:46:43;;;;;;;38.35;8.32;;;;;;;;;;4991502;28;97856;-75
2021/12/24 06:49:10;;;;;;;36.30;8.65;;;;;;;;;;4990526;28;95625;-75
2021/12/24 06:51:36;;;;;;;40.50;8.90;;;;;;;;;;4991003;28;96397;-75
2021/12/24 06:54:03;;;;;;;34.33;9.57;;;;;;;;;;4989821;28;97434;-74
2021/12/24 06:56:30;;;;;;;33.58;9.25;;;;;;;;;;4995670;28;97647;-74
2021/12/24 06:58:56;;;;;;;40.60;9.48;;;;;;;;;;5009653;28;97616;-74
2021/12/24 07:01:23;;;;;;;34.22;8.75;;;;;;;;;;4995410;28;95508;-74
2021/12/24 07:03:49;;;;;;;26.10;8.30;;;;;;;;;;4988574;28;97061;-74
2021/12/24 07:06:16;;;;;;;26.65;8.30;;;;;;;;;;4990010;28;97404;-75
2021/12/24 07:08:42;;;;;;;37.42;9.02;;;;;;;;;;5009378;28;95559;-73
2021/12/24 07:11:08;;;;;;;34.10;10.23;;;;;;;;;;4988196;28;96890;-73
2021/12/24 07:13:35;;;;;;;34.72;9.77;;;;;;;;;;4969001;28;97378;-74
2021/12/24 07:16:02;;;;;;;37.58;9.65;;;;;;;;;;4972965;28;95603;-76
2021/12/24 07:18:30;;;;;;;38.17;9.90;;;;;;;;;;5017708;28;99929;-74
2021/12/24 07:20:56;;;;;;;36.45;9.43;;;;;;;;;;5009682;28;95353;-74
2021/12/24 07:23:23;;;;;;;32.50;9.43;;;;;;;;;;4988240;28;97276;-74
2021/12/24 07:25:49;;;;;;;36.05;9.38;;;;;;;;;;4996561;28;97336;-74
2021/12/24 07:28:16;;;;;;;37.60;9.95;;;;;;;;;;4999811;28;96031;-76
2021/12/24 07:30:42;;;;;;;38.35;9.88;;;;;;;;;;5007712;28;96746;-75
2021/12/24 07:33:08;;;;;;;28.08;8.70;;;;;;;;;;4990489;28;97277;-75
2021/12/24 07:35:35;;;;;;;29.25;9.20;;;;;;;;;;4988797;28;95358;-74
2021/12/24 07:38:01;;;;;;;39.58;9.68;;;;;;;;;;4983980;28;99286;-77
2021/12/24 07:40:28;;;;;;;31.05;9.25;;;;;;;;;;5001448;28;95357;-74
2021/12/24 07:42:55;;;;;;;41.35;8.93;;;;;;;;;;4970627;28;96770;-75
2021/12/24 07:45:21;;;;;;;31.88;8.70;;;;;;;;;;4973915;28;96261;-73
2021/12/24 07:48:05;;;;;;;34.28;9.02;;;;;;;;;;4985022;28;95416;-76
2021/12/24 16:06:52;;;;;;;15.15;9.07;;;;;;;;;;5006712;28;95337;-78
2021/12/24 16:09:20;;;;;;;16.75;9.60;;;;;;;;;;4984734;28;97251;-78
2021/12/24 16:11:47;;;;;;;17.48;9.82;;;;;;;;;;4970725;28;95766;-78
2021/12/24 16:14:13;;;;;;;23.75;14.35;;;;;;;;;;4967758;28;96833;-78
2021/12/24 16:16:44;;;;;;;21.05;13.45;;;;;;;;;;4983400;28;97582;-78
2021/12/24 16:19:11;;;;;;;17.38;11.35;;;;;;;;;;4971447;28;95820;-78
2021/12/24 16:21:38;;;;;;;17.23;10.48;;;;;;;;;;4979755;28;96729;-76
2021/12/24 16:24:06;;;;;;;23.70;11.82;;;;;;;;;;4983273;28;97959;-75
2021/12/24 16:26:34;;;;;;;19.33;10.70;;;;;;;;;;4987199;28;95390;-78
2021/12/24 16:29:00;;;;;;;17.10;9.88;;;;;;;;;;4986914;28;97584;-76
2021/12/24 16:31:26;;;;;;;18.52;10.18;;;;;;;;;;4979751;28;96180;-75
2021/12/24 16:33:53;;;;;;;21.00;10.98;;;;;;;;;;4964733;28;95978;-75
2021/12/24 16:36:19;;;;;;;20.73;12.43;;;;;;;;;;4979906;28;97691;-75
2021/12/24 16:38:46;;;;;;;18.52;11.32;;;;;;;;;;4983359;28;95164;-75
2021/12/24 16:41:12;;;;;;;22.35;13.52;;;;;;;;;;4984123;28;96830;-74
2021/12/24 16:43:38;;;;;;;29.27;17.85;;;;;;;;;;4963073;28;97319;-75
2021/12/24 16:46:05;;;;;;;20.92;13.18;;;;;;;;;;4981651;28;95755;-75
2021/12/24 16:48:31;;;;;;;20.92;13.18;;;;;;;;;;5003189;28;96742;-75
2021/12/24 16:50:58;;;;;;;24.27;15.10;;;;;;;;;;4963840;28;95627;-75
2021/12/24 16:53:24;;;;;;;26.83;15.65;;;;;;;;;;4969124;28;96518;-75
2021/12/24 16:55:50;;;;;;;33.33;17.67;;;;;;;;;;4977580;28;97609;-74
2021/12/24 16:58:17;;;;;;;30.52;18.70;;;;;;;;;;4987876;28;95376;-75
2021/12/24 17:00:45;;;;;;;25.30;15.60;;;;;;;;;;4974519;28;96769;-75
2021/12/24 17:03:12;;;;;;;23.55;12.93;;;;;;;;;;4986227;28;97798;-75
2021/12/24 17:05:38;;;;;;;25.75;14.15;;;;;;;;;;4988078;28;96045;-75
2021/12/24 17:08:05;;;;;;;27.13;15.95;;;;;;;;;;4983082;28;96218;-75
2021/12/24 17:10:32;;;;;;;23.05;14.20;;;;;;;;;;4986263;28;97329;-76
2021/12/24 17:12:59;;;;;;;24.40;14.07;;;;;;;;;;4979006;28;96600;-75
2021/12/24 17:15:30;;;;;;;;;;;;;;;;;;4970146;28;97300;-75
2021/12/24 17:17:57;;;;;;;19.20;11.35;;;;;;;;;;4972402;28;116883;-76
2021/12/24 17:20:23;;;;;;;25.67;12.45;;;;;;;;;;4969537;28;96857;-77
2021/12/24 17:22:51;;;;;;;20.27;11.85;;;;;;;;;;4968468;28;97329;-75
2021/12/24 17:25:21;;;;;;;23.77;14.02;;;;;;;;;;4969331;28;96431;-77
2021/12/24 17:27:48;;;;;;;22.65;14.68;;;;;;;;;;4969247;28;96977;-75
2021/12/24 17:30:15;;;;;;;20.60;12.68;;;;;;;;;;4970476;28;97629;-74
2021/12/24 17:32:42;;;;;;;24.63;13.23;;;;;;;;;;4963112;28;95233;-74
2021/12/24 17:35:09;;;;;;;27.10;14.35;;;;;;;;;;4949445;28;97507;-77
2021/12/24 17:37:36;;;;;;;32.28;14.10;;;;;;;;;;4998508;28;96430;-75
2021/12/24 17:40:04;;;;;;;24.45;13.30;;;;;;;;;;4985540;28;96756;-75
2021/12/24 17:42:32;;;;;;;22.85;13.50;;;;;;;;;;4968071;28;97599;-77
2021/12/24 17:44:58;;;;;;;23.77;14.60;;;;;;;;;;4949777;28;95894;-77
2021/12/24 17:47:24;;;;;;;25.70;15.07;;;;;;;;;;4962641;28;96804;-77
2021/12/24 17:49:51;;;;;;;27.55;15.30;;;;;;;;;;4968418;28;97371;-77
2021/12/24 17:52:20;;;;;;;23.30;15.07;;;;;;;;;;4969221;28;95666;-78
2021/12/24 17:54:46;;;;;;;29.92;17.08;;;;;;;;;;4972398;28;96616;-77
2021/12/24 17:57:13;;;;;;;29.30;16.27;;;;;;;;;;4976080;28;95420;-76
2021/12/24 17:59:39;;;;;;;26.98;14.93;;;;;;;;;;4987957;28;97231;-77
2021/12/24 18:02:05;;;;;;;32.95;17.73;;;;;;;;;;4981075;28;97592;-77
2021/12/24 18:04:32;;;;;;;28.50;17.40;;;;;;;;;;4967867;28;96006;-77
2021/12/24 18:07:00;;;;;;;32.88;18.25;;;;;;;;;;4971763;28;96969;-76
2021/12/24 18:09:27;;;;;;;34.10;20.27;;;;;;;;;;4979281;28;97406;-76
2021/12/24 18:11:54;;;;;;;32.20;17.67;;;;;;;;;;4966584;28;95528;-77
2021/12/24 18:14:20;;;;;;;29.92;17.38;;;;;;;;;;4987016;28;96779;-75
2021/12/24 18:16:47;;;;;;;27.30;17.00;;;;;;;;;;4972814;28;95355;-75
2021/12/24 18:19:14;;;;;;;25.85;14.93;;;;;;;;;;4988581;28;96747;-75
2021/12/24 18:21:40;;;;;;;28.52;16.50;;;;;;;;;;4987987;28;97629;-75
2021/12/24 18:24:07;;;;;;;27.10;15.70;;;;;;;;;;4967059;28;95314;-75
2021/12/24 18:26:34;;;;;;;27.25;16.25;;;;;;;;;;4967688;28;96723;-75
2021/12/24 18:29:03;;;;;;;36.00;14.60;;;;;;;;;;4981946;28;97341;-75
2021/12/24 18:31:30;;;;;;;29.10;15.80;;;;;;;;;;4967854;28;95676;-76
2021/12/24 18:33:57;;;;;;;27.88;16.30;;;;;;;;;;4962399;28;96874;-76
2021/12/24 18:36:24;;;;;;;26.33;16.00;;;;;;;;;;4971585;28;97292;-76
2021/12/24 18:38:51;;;;;;;28.50;15.45;;;;;;;;;;4966186;28;96803;-75
2021/12/24 18:41:18;;;;;;;26.70;15.75;;;;;;;;;;4961105;28;97590;-76
2021/12/24 18:43:46;;;;;;;28.15;16.80;;;;;;;;;;4968486;28;95448;-76
2021/12/24 18:46:13;;;;;;;34.03;17.30;;;;;;;;;;4967858;28;95592;-76
2021/12/24 18:48:39;;;;;;;35.47;14.82;;;;;;;;;;4961641;28;97253;-76
2021/12/24 18:51:05;;;;;;;23.73;15.13;;;;;;;;;;4968387;28;95370;-76
2021/12/24 18:53:32;;;;;;;23.00;13.70;;;;;;;;;;4959762;28;97078;-76
2021/12/24 18:55:58;;;;;;;27.30;16.33;;;;;;;;;;4968595;28;96336;-75
2021/12/24 18:58:25;;;;;;;25.77;15.85;;;;;;;;;;4968533;28;96115;-76
2021/12/24 19:00:52;;;;;;;27.92;16.35;;;;;;;;;;4966811;28;97257;-76
2021/12/24 19:03:20;;;;;;;32.42;17.77;;;;;;;;;;4963106;28;95829;-76
2021/12/24 19:05:46;;;;;;;32.17;18.88;;;;;;;;;;4955876;28;97162;-76
2021/12/24 19:08:13;;;;;;;34.75;19.13;;;;;;;;;;4948938;28;97311;-78
2021/12/24 19:10:40;;;;;;;39.75;18.65;;;;;;;;;;4948675;28;95451;-76
2021/12/24 19:13:07;;;;;;;34.55;18.10;;;;;;;;;;4947800;28;96457;-75
2021/12/24 19:15:34;;;;;;;28.75;17.30;;;;;;;;;;4948682;28;98038;-76
2021/12/24 19:18:00;;;;;;;35.38;18.42;;;;;;;;;;4951986;28;95685;-76
2021/12/24 19:20:27;;;;;;;32.15;18.35;;;;;;;;;;4970494;28;96819;-75
2021/12/24 19:22:54;;;;;;;37.22;20.23;;;;;;;;;;4964551;28;95392;-76
2021/12/24 19:25:20;;;;;;;36.70;18.25;;;;;;;;;;4968590;28;97538;-76
2021/12/24 19:27:46;;;;;;;33.35;18.80;;;;;;;;;;4949534;28;97376;-76
2021/12/24 19:30:14;;;;;;;36.42;17.85;;;;;;;;;;4966237;28;95594;-76
2021/12/24 19:32:41;;;;;;;36.03;18.95;;;;;;;;;;4955889;28;96841;-76
2021/12/24 19:35:10;;;;;;;35.90;19.10;;;;;;;;;;4947441;28;97281;-75
2021/12/24 19:37:36;;;;;;;38.95;18.92;;;;;;;;;;4963251;28;95262;-75
2021/12/24 19:40:05;;;;;;;36.20;20.00;;;;;;;;;;4962029;28;96826;-76
2021/12/24 19:42:32;;;;;;;37.95;20.58;;;;;;;;;;4970182;28;97682;-76
2021/12/24 19:44:58;;;;;;;36.90;21.17;;;;;;;;;;4999422;28;97166;-76
2021/12/24 19:47:25;;;;;;;34.95;20.50;;;;;;;;;;4980872;28;97241;-76
2021/12/24 19:49:51;;;;;;;40.25;19.38;;;;;;;;;;4967885;28;96007;-76
2021/12/24 19:52:18;;;;;;;39.03;18.00;;;;;;;;;;4967286;28;96010;-76
2021/12/24 19:54:44;;;;;;;54.95;28.00;;;;;;;;;;4967488;28;97196;-76
2021/12/24 19:57:11;;;;;;;45.13;23.20;;;;;;;;;;4967126;28;96638;-76
2021/12/24 19:59:38;;;;;;;55.47;24.85;;;;;;;;;;4960815;28;96780;-76
2021/12/24 20:02:05;;;;;;;85.78;35.78;;;;;;;;;;4960787;28;97850;-76
2021/12/24 20:04:32;;;;;;;47.65;22.40;;;;;;;;;;4957805;28;95667;-76
2021/12/24 20:06:58;;;;;;;54.67;25.20;;;;;;;;;;4954430;28;97568;-76
2021/12/24 20:09:24;;;;;;;92.13;38.95;;;;;;;;;;4976546;28;95721;-76
2021/12/24 20:11:51;;;;;;;50.17;22.88;;;;;;;;;;4961548;28;96798;-76
2021/12/24 20:14:17;;;;;;;47.72;23.15;;;;;;;;;;4971214;28;97363;-76
2021/12/24 20:16:45;;;;;;;48.40;23.13;;;;;;;;;;4972761;28;97024;-76
2021/12/24 20:19:13;;;;;;;49.10;25.33;;;;;;;;;;4966679;28;96603;-76
2021/12/24 20:21:40;;;;;;;44.65;23.35;;;;;;;;;;4970623;28;97670;-78
2021/12/24 20:24:07;;;;;;;47.67;25.50;;;;;;;;;;4985204;28;95934;-77
2021/12/24 20:26:34;;;;;;;51.70;31.63;;;;;;;;;;4966730;28;96425;-76
2021/12/24 20:29:01;;;;;;;43.90;24.42;;;;;;;;;;4984092;28;95397;-77
2021/12/24 20:31:27;;;;;;;56.42;27.40;;;;;;;;;;4969486;28;97088;-76
2021/12/24 20:33:54;;;;;;;51.17;27.30;;;;;;;;;;4967294;28;97248;-76
2021/12/24 20:36:20;;;;;;;40.30;23.33;;;;;;;;;;4977347;28;95202;-76
2021/12/24 20:38:48;;;;;;;48.15;25.40;;;;;;;;;;4982513;28;97176;-76
2021/12/24 20:41:14;;;;;;;39.95;21.35;;;;;;;;;;4964605;28;97718;-77
2021/12/24 20:43:41;;;;;;;42.92;22.15;;;;;;;;;;4980771;28;95218;-76
2021/12/24 20:46:07;;;;;;;42.83;19.98;;;;;;;;;;4975267;28;95761;-76
2021/12/24 20:48:34;;;;;;;39.00;19.92;;;;;;;;;;4976962;28;95547;-76
2021/12/24 20:51:02;;;;;;;35.65;20.23;;;;;;;;;;4972689;28;96893;-77
2021/12/24 20:53:28;;;;;;;39.28;21.88;;;;;;;;;;4969631;28;97350;-76
2021/12/24 20:55:57;;;;;;;38.50;20.38;;;;;;;;;;4968950;28;95404;-76
2021/12/24 20:58:25;;;;;;;42.30;21.67;;;;;;;;;;4970470;28;96782;-78
2021/12/24 21:00:51;;;;;;;43.58;21.35;;;;;;;;;;4969407;28;96980;-76
2021/12/24 21:03:18;;;;;;;45.28;21.77;;;;;;;;;;4969162;28;95367;-75
2021/12/24 21:05:45;;;;;;;41.90;21.60;;;;;;;;;;4967100;28;96836;-76
2021/12/24 21:08:12;;;;;;;42.03;21.70;;;;;;;;;;4973795;28;97889;-75
2021/12/24 21:10:41;;;;;;;33.85;19.35;;;;;;;;;;4968503;28;96804;-75
2021/12/24 21:13:08;;;;;;;72.10;28.27;;;;;;;;;;5000079;28;97559;-77
2021/12/24 21:15:34;;;;;;;43.80;21.70;;;;;;;;;;4969961;28;95279;-76
2021/12/24 21:18:00;;;;;;;35.88;20.40;;;;;;;;;;4970134;28;96823;-76
2021/12/24 21:20:27;;;;;;;43.45;20.30;;;;;;;;;;4988894;28;96275;-76
2021/12/24 21:22:53;;;;;;;38.85;20.55;;;;;;;;;;4969057;28;95910;-76
2021/12/24 21:25:20;;;;;;;39.95;18.85;;;;;;;;;;4963099;28;96994;-75
2021/12/24 21:27:47;;;;;;;41.30;21.15;;;;;;;;;;4963445;28;97545;-75
2021/12/24 21:30:15;;;;;;;32.00;18.52;;;;;;;;;;4959416;28;95409;-78
2021/12/24 21:32:42;;;;;;;36.13;18.50;;;;;;;;;;4962379;28;97457;-77
2021/12/24 21:35:09;;;;;;;37.10;18.20;;;;;;;;;;4969718;28;95565;-77
2021/12/24 21:37:35;;;;;;;34.00;18.15;;;;;;;;;;4970163;28;97193;-77
2021/12/24 21:40:04;;;;;;;29.20;17.60;;;;;;;;;;4970711;28;97768;-77
2021/12/24 21:42:30;;;;;;;38.50;21.13;;;;;;;;;;4968003;28;95935;-77
2021/12/24 21:45:00;;;;;;;34.95;21.17;;;;;;;;;;4969912;28;97050;-77
2021/12/24 21:47:27;;;;;;;32.55;18.25;;;;;;;;;;4968694;28;97294;-78
2021/12/24 21:49:53;;;;;;;24.88;15.65;;;;;;;;;;4964031;28;96854;-76
2021/12/24 21:52:19;;;;;;;23.98;14.43;;;;;;;;;;4972997;28;97139;-77
2021/12/24 21:54:46;;;;;;;27.65;15.25;;;;;;;;;;4954686;28;95299;-76
2021/12/24 21:57:12;;;;;;;23.42;13.85;;;;;;;;;;4986968;28;97178;-76
2021/12/24 21:59:38;;;;;;;27.42;13.90;;;;;;;;;;4979666;28;97633;-76
2021/12/24 22:02:05;;;;;;;24.42;14.20;;;;;;;;;;4969362;28;96203;-77
2021/12/24 22:04:47;;;;;;;20.40;13.68;;;;;;;;;;4968477;28;96718;-76
2021/12/24 22:09:59;;;;;;;19.00;11.05;;;;;;;;;;4961632;28;96530;-76
2021/12/24 22:12:25;;;;;;;23.02;12.45;;;;;;;;;;4961114;28;97114;-76
2021/12/24 22:14:52;;;;;;;24.67;13.23;;;;;;;;;;4972824;28;97328;-76
2021/12/24 22:17:21;;;;;;;20.80;12.23;;;;;;;;;;4982604;28;96831;-77
2021/12/24 22:19:48;;;;;;;20.55;11.55;;;;;;;;;;4964465;28;98221;-76
2021/12/24 22:22:28;;;;;;;18.80;11.02;;;;;;;;;;4961671;28;95708;-76
2021/12/24 22:24:56;;;;;;;20.92;10.43;;;;;;;;;;4968966;28;97050;-76
2021/12/24 22:27:22;;;;;;;20.38;11.43;;;;;;;;;;4971334;28;97802;-76
2021/12/24 22:29:48;;;;;;;24.08;12.23;;;;;;;;;;4969796;28;95698;-76
2021/12/24 22:32:15;;;;;;;29.15;13.73;;;;;;;;;;4968538;28;96841;-76
2021/12/24 22:34:41;;;;;;;19.88;11.38;;;;;;;;;;4973121;28;96417;-76
2021/12/24 22:37:11;;;;;;;22.30;11.52;;;;;;;;;;4969474;28;95893;-76
2021/12/24 22:39:39;;;;;;;20.65;11.88;;;;;;;;;;4973049;28;99232;-76
2021/12/24 22:42:11;;;;;;;;;;;;;;;;;;4990769;28;95788;-75
2021/12/24 22:44:48;;;;;;;18.38;9.82;;;;;;;;;;4989694;28;125625;-75
2021/12/24 22:47:19;;;;;;;28.55;12.07;;;;;;;;;;4981341;28;96814;-75
2021/12/24 22:49:50;;;;;;;23.88;12.40;;;;;;;;;;4970405;28;95637;-75
2021/12/24 22:52:40;;;;;;;25.87;14.23;;;;;;;;;;4972530;28;95881;-75
2021/12/24 22:55:08;;;;;;;25.75;14.77;;;;;;;;;;4950951;28;96234;-75
2021/12/24 22:57:39;;;;;;;29.02;14.63;;;;;;;;;;4980698;28;95660;-75
2021/12/24 23:00:12;;;;;;;30.80;16.30;;;;;;;;;;4983937;28;96617;-75
2021/12/24 23:02:39;;;;;;;24.85;12.85;;;;;;;;;;4989401;28;95410;-74
2021/12/24 23:05:07;;;;;;;24.30;12.55;;;;;;;;;;4989420;28;95803;-74
2021/12/24 23:07:40;;;;;;;41.85;17.75;;;;;;;;;;4975141;28;97422;-74
2021/12/24 23:10:11;;;;;;;47.10;20.80;;;;;;;;;;4969905;28;95586;-75
2021/12/24 23:12:40;;;;;;;51.00;21.90;;;;;;;;;;4972952;28;99508;-75
2021/12/24 23:15:11;;;;;;;58.95;22.90;;;;;;;;;;4988340;28;96524;-74
2021/12/24 23:17:42;;;;;;;58.47;22.10;;;;;;;;;;4989386;28;95332;-74
2021/12/24 23:20:21;;;;;;;51.25;22.30;;;;;;;;;;4992361;28;97494;-74
2021/12/24 23:22:48;;;;;;;48.97;22.45;;;;;;;;;;4981771;28;95728;-77
2021/12/24 23:25:17;;;;;;;31.67;16.20;;;;;;;;;;4970382;28;95843;-75
2021/12/24 23:27:45;;;;;;;47.55;20.92;;;;;;;;;;4969018;28;97727;-76
2021/12/24 23:30:13;;;;;;;39.88;17.35;;;;;;;;;;4969535;28;95682;-74
2021/12/24 23:32:46;;;;;;;45.72;21.05;;;;;;;;;;4969699;28;95847;-74
2021/12/24 23:35:16;;;;;;;40.97;19.20;;;;;;;;;;4967947;28;96904;-75
2021/12/24 23:37:47;;;;;;;43.78;19.58;;;;;;;;;;4968353;28;95615;-74
2021/12/24 23:40:15;;;;;;;47.55;21.52;;;;;;;;;;4969452;28;96329;-75
2021/12/24 23:42:47;;;;;;;35.47;18.70;;;;;;;;;;4972184;28;96615;-74
2021/12/24 23:45:36;;;;;;;36.65;19.00;;;;;;;;;;4978636;28;95916;-74
2021/12/24 23:48:05;;;;;;;29.33;15.95;;;;;;;;;;4988814;28;97393;-74
2021/12/24 23:50:34;;;;;;;37.40;19.02;;;;;;;;;;4989179;28;96083;-74
2021/12/24 23:53:14;;;;;;;29.67;16.13;;;;;;;;;;4988060;28;96135;-74
2021/12/24 23:55:45;;;;;;;23.35;13.73;;;;;;;;;;4977710;28;96626;-74
2021/12/24 23:58:13;;;;;;;30.73;16.98;;;;;;;;;;4968797;28;95964;-74
